Observation data for Levelland on 11/17/2019      Previous  Date  Next       Current Mesonet Observations  Soil Data  Daily Summary Page  Observations in Plain Language
KLD1 170600Z 22009KT 08/02 A2996 RMK A01 T00780015  RH  065%=      5-min Rain = 0
KLD1 170605Z 22008KT 08/02 A2996 RMK A01 T00780015  RH  066%=      5-min Rain = 0
KLD1 170610Z 23007KT 07/01 A2997 RMK A01 T00730014  RH  067%=      5-min Rain = 0
KLD1 170615Z 23007KT 07/01 A2997 RMK A01 T00700013  RH  068%=      5-min Rain = 0
KLD1 170620Z 23006KT 07/01 A2997 RMK A01 T00680014  RH  069%=      5-min Rain = 0
KLD1 170625Z 23006KT 07/01 A2997 RMK A01 T00680014  RH  070%=      5-min Rain = 0
KLD1 170630Z 23005KT 07/02 A2997 RMK A01 T00670015  RH  070%=      5-min Rain = 0
KLD1 170635Z 23006KT 07/02 A2997 RMK A01 T00670016  RH  071%=      5-min Rain = 0
KLD1 170640Z 23006KT 07/02 A2997 RMK A01 T00660017  RH  072%=      5-min Rain = 0
KLD1 170645Z 23006KT 07/02 A2997 RMK A01 T00660017  RH  072%=      5-min Rain = 0
KLD1 170650Z 23007KT 06/02 A2997 RMK A01 T00630016  RH  073%=      5-min Rain = 0
KLD1 170655Z 23007KT 06/02 A2997 RMK A01 T00630018  RH  074%=      5-min Rain = 0
KLD1 170700Z 24006KT 06/02 A2997 RMK A01 T00620017  RH  074%=      5-min Rain = 0
KLD1 170705Z 25004KT 05/01 A2997 RMK A01 T00510008  RH  075%=      5-min Rain = 0
KLD1 170710Z 32008KT 04/00 A2998 RMK A01 T00390004  RH  079%=      5-min Rain = 0
KLD1 170715Z 33008KT 04/01 A2998 RMK A01 T00440012  RH  081%=      5-min Rain = 0
KLD1 170720Z 34007KT 04/01 A2999 RMK A01 T00430010  RH  081%=      5-min Rain = 0
KLD1 170725Z 34006KT 04/01 A2999 RMK A01 T00420011  RH  081%=      5-min Rain = 0
KLD1 170730Z 33006KT 04/01 A2999 RMK A01 T00440010  RH  080%=      5-min Rain = 0
KLD1 170735Z 33004KT 04/01 A2998 RMK A01 T00440009  RH  079%=      5-min Rain = 0
KLD1 170740Z 33004KT 05/01 A2998 RMK A01 T00450008  RH  078%=      5-min Rain = 0
KLD1 170745Z 32003KT 05/01 A2998 RMK A01 T00450008  RH  078%=      5-min Rain = 0
KLD1 170750Z 32004KT 05/01 A2997 RMK A01 T00450008  RH  078%=      5-min Rain = 0
KLD1 170755Z 31004KT 05/01 A2997 RMK A01 T00450008  RH  078%=      5-min Rain = 0
KLD1 170800Z 31005KT 05/01 A2997 RMK A01 T00460007  RH  077%=      5-min Rain = 0
KLD1 170805Z 30005KT 04/00 A2997 RMK A01 T00420003  RH  077%=      5-min Rain = 0
KLD1 170810Z 29005KT 03/00 A2997 RMK A01 T00340000  RH  079%=      5-min Rain = 0
KLD1 170815Z 29006KT 03/00 A2997 RMK A01 T00320001  RH  081%=      5-min Rain = 0
KLD1 170820Z 29006KT 03/M00 A2997 RMK A01 T00301001  RH  081%=      5-min Rain = 0
KLD1 170825Z 29006KT 03/M00 A2997 RMK A01 T00261004  RH  082%=      5-min Rain = 0
KLD1 170830Z 30007KT 02/M01 A2998 RMK A01 T00211006  RH  083%=      5-min Rain = 0
KLD1 170835Z 31007KT 02/M01 A2998 RMK A01 T00181007  RH  084%=      5-min Rain = 0
KLD1 170840Z 32008KT 01/M01 A2998 RMK A01 T00131011  RH  085%=      5-min Rain = 0
KLD1 170845Z 32008KT 02/M01 A2998 RMK A01 T00171006  RH  086%=      5-min Rain = 0
KLD1 170850Z 31008KT 02/M00 A2998 RMK A01 T00241002  RH  084%=      5-min Rain = 0
KLD1 170855Z 32010KT 03/00 A2999 RMK A01 T00340002  RH  080%=      5-min Rain = 0
KLD1 170900Z 33011G16KT 05/00 A2999 RMK A01 T00480004  RH  074%=      5-min Rain = 0
KLD1 170905Z 34013KT 06/00 A2999 RMK A01 T00630004  RH  067%=      5-min Rain = 0
KLD1 170910Z 35015KT 07/00 A2999 RMK A01 T00730002  RH  061%=      5-min Rain = 0
KLD1 170915Z 36016G21KT 08/00 A2999 RMK A01 T00800001  RH  058%=      5-min Rain = 0
KLD1 170920Z 01018G23KT 08/00 A2999 RMK A01 T008300-0  RH  056%=      5-min Rain = 0
KLD1 170925Z 01017G22KT 08/M00 A2999 RMK A01 T00821001  RH  056%=      5-min Rain = 0
KLD1 170930Z 00018G23KT 08/M00 A30 RMK A01 T00811003  RH  056%=      5-min Rain = 0
KLD1 170935Z 36017G23KT 08/M00 A3001 RMK A01 T00781004  RH  057%=      5-min Rain = 0
KLD1 170940Z 36015G22KT 07/M00 A3001 RMK A01 T00721004  RH  059%=      5-min Rain = 0
KLD1 170945Z 36016KT 07/M01 A3002 RMK A01 T00711005  RH  059%=      5-min Rain = 0
KLD1 170950Z 00015G21KT 07/M01 A3002 RMK A01 T00691005  RH  060%=      5-min Rain = 0
KLD1 170955Z 00015KT 07/M01 A3003 RMK A01 T00711006  RH  059%=      5-min Rain = 0
KLD1 171000Z 36015KT 07/M01 A3003 RMK A01 T00721007  RH  058%=      5-min Rain = 0
KLD1 171005Z 00016G21KT 07/M01 A3003 RMK A01 T00731008  RH  057%=      5-min Rain = 0
KLD1 171010Z 00017KT 08/M01 A3003 RMK A01 T00761009  RH  055%=      5-min Rain = 0
KLD1 171015Z 00018KT 08/M01 A3004 RMK A01 T00791011  RH  054%=      5-min Rain = 0
KLD1 171020Z 36019G26KT 08/M01 A3004 RMK A01 T00821012  RH  052%=      5-min Rain = 0
KLD1 171025Z 00019G25KT 08/M01 A3004 RMK A01 T00831013  RH  051%=      5-min Rain = 0
KLD1 171030Z 00020G25KT 08/M01 A3004 RMK A01 T00831013  RH  051%=      5-min Rain = 0
KLD1 171035Z 01019G25KT 08/M01 A3004 RMK A01 T00831013  RH  051%=      5-min Rain = 0
KLD1 171040Z 01019KT 08/M01 A3004 RMK A01 T00821012  RH  052%=      5-min Rain = 0
KLD1 171045Z 01018G23KT 08/M01 A3003 RMK A01 T00811012  RH  052%=      5-min Rain = 0
KLD1 171050Z 01017KT 08/M01 A3004 RMK A01 T00801012  RH  053%=      5-min Rain = 0
KLD1 171055Z 01017KT 08/M01 A3005 RMK A01 T00791011  RH  053%=      5-min Rain = 0
KLD1 171100Z 00017KT 08/M01 A3005 RMK A01 T00791011  RH  054%=      5-min Rain = 0
KLD1 171105Z 00018G23KT 08/M01 A3006 RMK A01 T00801011  RH  053%=      5-min Rain = 0
KLD1 171110Z 00020G28KT 08/M01 A3006 RMK A01 T00801010  RH  053%=      5-min Rain = 0
KLD1 171115Z 00021G26KT 08/M01 A3006 RMK A01 T00801010  RH  054%=      5-min Rain = 0
KLD1 171120Z 01022G29KT 08/M01 A3007 RMK A01 T00801009  RH  054%=      5-min Rain = 0
KLD1 171125Z 01020G27KT 08/M01 A3007 RMK A01 T00781009  RH  054%=      5-min Rain = 0
KLD1 171130Z 01020G26KT 08/M01 A3007 RMK A01 T00771009  RH  055%=      5-min Rain = 0
KLD1 171135Z 00020G25KT 08/M01 A3007 RMK A01 T00751009  RH  056%=      5-min Rain = 0
KLD1 171140Z 01020G27KT 07/M01 A3008 RMK A01 T00741008  RH  056%=      5-min Rain = 0
KLD1 171145Z 01019G24KT 07/M01 A3008 RMK A01 T00731008  RH  057%=      5-min Rain = 0
KLD1 171150Z 01019KT 07/M01 A3008 RMK A01 T00721007  RH  058%=      5-min Rain = 0
KLD1 171155Z 01019G24KT 07/M01 A3008 RMK A01 T00711007  RH  058%=      5-min Rain = 0
KLD1 171200Z 01018G23KT 07/M01 A3009 RMK A01 T00701007  RH  059%=      5-min Rain = 0
KLD1 171205Z 00019KT 07/M01 A3009 RMK A01 T00691007  RH  059%=      5-min Rain = 0
KLD1 171210Z 00018G24KT 07/M01 A3009 RMK A01 T00681006  RH  060%=      5-min Rain = 0
KLD1 171215Z 00018KT 07/M01 A301 RMK A01 T00671006  RH  060%=      5-min Rain = 0
KLD1 171220Z 36017KT 07/M01 A3011 RMK A01 T00661006  RH  061%=      5-min Rain = 0
KLD1 171225Z 36017KT 07/M01 A3011 RMK A01 T00651005  RH  062%=      5-min Rain = 0
KLD1 171230Z 36017G22KT 06/M01 A3011 RMK A01 T00641005  RH  062%=      5-min Rain = 0
KLD1 171235Z 36018G23KT 06/M01 A3012 RMK A01 T00621005  RH  063%=      5-min Rain = 0
KLD1 171240Z 36018KT 06/M01 A3012 RMK A01 T00621005  RH  063%=      5-min Rain = 0
KLD1 171245Z 36017KT 06/M01 A3013 RMK A01 T00601005  RH  064%=      5-min Rain = 0
KLD1 171250Z 36018KT 06/M00 A3013 RMK A01 T00601004  RH  065%=      5-min Rain = 0
KLD1 171255Z 36019KT 06/M00 A3013 RMK A01 T00601002  RH  065%=      5-min Rain = 0
KLD1 171300Z 00018G26KT 06/M00 A3014 RMK A01 T00601001  RH  066%=      5-min Rain = 0
KLD1 171305Z 36020G25KT 06/00 A3014 RMK A01 T00600000  RH  066%=      5-min Rain = 0
KLD1 171310Z 36018G23KT 06/00 A3014 RMK A01 T00590000  RH  067%=      5-min Rain = 0
KLD1 171315Z 00017G22KT 06/00 A3015 RMK A01 T00580001  RH  068%=      5-min Rain = 0
KLD1 171320Z 00018G24KT 06/00 A3015 RMK A01 T00580002  RH  068%=      5-min Rain = 0
KLD1 171325Z 00018G23KT 06/00 A3015 RMK A01 T00580003  RH  068%=      5-min Rain = 0
KLD1 171330Z 00019G24KT 06/00 A3015 RMK A01 T00580003  RH  069%=      5-min Rain = 0
KLD1 171335Z 00018G23KT 06/00 A3016 RMK A01 T00580004  RH  069%=      5-min Rain = 0
KLD1 171340Z 01018KT 06/00 A3016 RMK A01 T00590004  RH  069%=      5-min Rain = 0
KLD1 171345Z 01017KT 06/00 A3016 RMK A01 T00580004  RH  069%=      5-min Rain = 0
KLD1 171350Z 01017G22KT 06/00 A3017 RMK A01 T00590004  RH  069%=      5-min Rain = 0
KLD1 171355Z 00017KT 06/01 A3017 RMK A01 T00590005  RH  069%=      5-min Rain = 0
KLD1 171400Z 00016G21KT 06/01 A3017 RMK A01 T00590005  RH  069%=      5-min Rain = 0
KLD1 171405Z 00016G21KT 06/01 A3018 RMK A01 T00590005  RH  069%=      5-min Rain = 0
KLD1 171410Z 36017G22KT 06/01 A3018 RMK A01 T00600005  RH  069%=      5-min Rain = 0
KLD1 171415Z 00018KT 06/01 A3018 RMK A01 T00600005  RH  069%=      5-min Rain = 0
KLD1 171420Z 00018G23KT 06/01 A3018 RMK A01 T00610006  RH  068%=      5-min Rain = 0
KLD1 171425Z 01017KT 06/01 A3018 RMK A01 T00620006  RH  068%=      5-min Rain = 0
KLD1 171430Z 00016G21KT 06/01 A3019 RMK A01 T00640007  RH  068%=      5-min Rain = 0
KLD1 171435Z 00016G22KT 07/01 A3019 RMK A01 T00650007  RH  067%=      5-min Rain = 0
KLD1 171440Z 01017G22KT 07/01 A3019 RMK A01 T00660007  RH  067%=      5-min Rain = 0
KLD1 171445Z 01017G23KT 07/01 A302 RMK A01 T00680007  RH  066%=      5-min Rain = 0
KLD1 171450Z 01017KT 07/01 A302 RMK A01 T00690008  RH  066%=      5-min Rain = 0
KLD1 171455Z 01018KT 07/01 A302 RMK A01 T00710008  RH  065%=      5-min Rain = 0
KLD1 171500Z 01019KT 07/01 A302 RMK A01 T00720008  RH  065%=      5-min Rain = 0
KLD1 171505Z 01017KT 07/01 A302 RMK A01 T00730009  RH  064%=      5-min Rain = 0
KLD1 171510Z 01018KT 08/01 A302 RMK A01 T00750009  RH  064%=      5-min Rain = 0
KLD1 171515Z 01020G25KT 08/01 A302 RMK A01 T00770009  RH  063%=      5-min Rain = 0
KLD1 171520Z 01017G24KT 08/01 A302 RMK A01 T00800010  RH  062%=      5-min Rain = 0
KLD1 171525Z 01020G26KT 08/01 A302 RMK A01 T00810009  RH  062%=      5-min Rain = 0
KLD1 171530Z 01018G23KT 08/01 A302 RMK A01 T00830010  RH  061%=      5-min Rain = 0
KLD1 171535Z 01020G25KT 09/01 A302 RMK A01 T00850010  RH  060%=      5-min Rain = 0
KLD1 171540Z 02022G27KT 09/01 A302 RMK A01 T00850009  RH  060%=      5-min Rain = 0
KLD1 171545Z 02020G26KT 09/01 A302 RMK A01 T00870010  RH  059%=      5-min Rain = 0
KLD1 171550Z 01019KT 09/01 A302 RMK A01 T00890010  RH  058%=      5-min Rain = 0
KLD1 171555Z 01020G27KT 09/01 A302 RMK A01 T00910010  RH  058%=      5-min Rain = 0
KLD1 171600Z 01019G24KT 09/01 A302 RMK A01 T00920010  RH  057%=      5-min Rain = 0
KLD1 171605Z 02018G23KT 09/01 A3021 RMK A01 T00940010  RH  056%=      5-min Rain = 0
KLD1 171610Z 02019KT 10/01 A3021 RMK A01 T00950010  RH  056%=      5-min Rain = 0
KLD1 171615Z 02018KT 10/01 A3021 RMK A01 T00960010  RH  056%=      5-min Rain = 0
KLD1 171620Z 01017KT 10/01 A3021 RMK A01 T01000011  RH  055%=      5-min Rain = 0
KLD1 171625Z 01016KT 10/01 A3021 RMK A01 T01010012  RH  055%=      5-min Rain = 0
KLD1 171630Z 01018KT 10/01 A3021 RMK A01 T01010010  RH  054%=      5-min Rain = 0
KLD1 171635Z 01015KT 10/01 A3021 RMK A01 T01020012  RH  054%=      5-min Rain = 0
KLD1 171640Z 02016KT 11/01 A302 RMK A01 T01060012  RH  053%=      5-min Rain = 0
KLD1 171645Z 02016G21KT 11/01 A302 RMK A01 T01060012  RH  053%=      5-min Rain = 0
KLD1 171650Z 02015KT 11/01 A302 RMK A01 T01080013  RH  052%=      5-min Rain = 0
KLD1 171655Z 02016KT 11/01 A302 RMK A01 T01090013  RH  052%=      5-min Rain = 0
KLD1 171700Z 01016KT 11/01 A302 RMK A01 T01120013  RH  051%=      5-min Rain = 0
KLD1 171705Z 02015KT 11/01 A302 RMK A01 T01120012  RH  051%=      5-min Rain = 0
KLD1 171710Z 02016KT 11/01 A302 RMK A01 T01130013  RH  051%=      5-min Rain = 0
KLD1 171715Z 02016KT 11/01 A302 RMK A01 T01120012  RH  051%=      5-min Rain = 0
KLD1 171720Z 02016KT 12/01 A302 RMK A01 T01160013  RH  050%=      5-min Rain = 0
KLD1 171725Z 01013G18KT 12/02 A302 RMK A01 T01210015  RH  049%=      5-min Rain = 0
KLD1 171730Z 01014KT 12/01 A3019 RMK A01 T01220014  RH  048%=      5-min Rain = 0
KLD1 171735Z 01013KT 12/02 A3019 RMK A01 T01240016  RH  048%=      5-min Rain = 0
KLD1 171740Z 36014KT 12/02 A3019 RMK A01 T01230015  RH  048%=      5-min Rain = 0
KLD1 171745Z 01014G20KT 13/02 A3019 RMK A01 T01260015  RH  047%=      5-min Rain = 0
KLD1 171750Z 01015KT 13/01 A3019 RMK A01 T01270014  RH  047%=      5-min Rain = 0
KLD1 171755Z 01013G19KT 13/02 A3018 RMK A01 T01270015  RH  047%=      5-min Rain = 0
KLD1 171800Z 01013G18KT 13/01 A3018 RMK A01 T01280014  RH  047%=      5-min Rain = 0
KLD1 171805Z 01014G19KT 13/02 A3018 RMK A01 T01300015  RH  046%=      5-min Rain = 0
KLD1 171810Z 02012KT 13/02 A3017 RMK A01 T01320015  RH  045%=      5-min Rain = 0
KLD1 171815Z 01012KT 13/02 A3018 RMK A01 T01330015  RH  045%=      5-min Rain = 0
KLD1 171820Z 01012KT 13/01 A3017 RMK A01 T01300014  RH  046%=      5-min Rain = 0
KLD1 171825Z 01013KT 13/02 A3017 RMK A01 T01330015  RH  045%=      5-min Rain = 0
KLD1 171830Z 01011KT 13/02 A3016 RMK A01 T01330015  RH  045%=      5-min Rain = 0
KLD1 171835Z 01011G17KT 14/01 A3016 RMK A01 T01370014  RH  044%=      5-min Rain = 0
KLD1 171840Z 35010KT 14/02 A3016 RMK A01 T01390015  RH  044%=      5-min Rain = 0
KLD1 171845Z 00010KT 14/01 A3016 RMK A01 T01400014  RH  043%=      5-min Rain = 0
KLD1 171850Z 01010G17KT 14/02 A3015 RMK A01 T01430015  RH  042%=      5-min Rain = 0
KLD1 171855Z 36011KT 14/01 A3016 RMK A01 T01420014  RH  042%=      5-min Rain = 0
KLD1 171900Z 36011G16KT 14/01 A3016 RMK A01 T01410014  RH  043%=      5-min Rain = 0
KLD1 171905Z 01010G15KT 14/01 A3016 RMK A01 T01440013  RH  042%=      5-min Rain = 0
KLD1 171910Z 02009G14KT 15/01 A3015 RMK A01 T01450013  RH  041%=      5-min Rain = 0
KLD1 171915Z 01010KT 15/01 A3015 RMK A01 T01460014  RH  041%=      5-min Rain = 0
KLD1 171920Z 00010KT 15/01 A3015 RMK A01 T01460014  RH  041%=      5-min Rain = 0
KLD1 171925Z 02011KT 15/01 A3015 RMK A01 T01480013  RH  040%=      5-min Rain = 0
KLD1 171930Z 01010KT 15/01 A3015 RMK A01 T01460013  RH  041%=      5-min Rain = 0
KLD1 171935Z 00011KT 15/01 A3015 RMK A01 T01490013  RH  040%=      5-min Rain = 0
KLD1 171940Z 02010KT 15/01 A3015 RMK A01 T01500013  RH  040%=      5-min Rain = 0
KLD1 171945Z 01011G16KT 15/01 A3015 RMK A01 T01500013  RH  040%=      5-min Rain = 0
KLD1 171950Z 00010G15KT 15/01 A3014 RMK A01 T01510013  RH  040%=      5-min Rain = 0
KLD1 171955Z 01010KT 15/01 A3014 RMK A01 T01510013  RH  040%=      5-min Rain = 0
KLD1 172000Z 02007G12KT 15/01 A3014 RMK A01 T01500013  RH  040%=      5-min Rain = 0
KLD1 172005Z 01010KT 15/01 A3013 RMK A01 T01540013  RH  039%=      5-min Rain = 0
KLD1 172010Z 00011KT 15/01 A3014 RMK A01 T01530013  RH  039%=      5-min Rain = 0
KLD1 172015Z 01010KT 15/01 A3014 RMK A01 T01520013  RH  039%=      5-min Rain = 0
KLD1 172020Z 02012G17KT 16/02 A3014 RMK A01 T01550015  RH  039%=      5-min Rain = 0
KLD1 172025Z 02009KT 16/02 A3013 RMK A01 T01550015  RH  039%=      5-min Rain = 0
KLD1 172030Z 35010KT 15/01 A3013 RMK A01 T01540014  RH  039%=      5-min Rain = 0
KLD1 172035Z 00008KT 15/02 A3013 RMK A01 T01530015  RH  040%=      5-min Rain = 0
KLD1 172040Z 03009KT 15/02 A3013 RMK A01 T01540015  RH  040%=      5-min Rain = 0
KLD1 172045Z 00008KT 15/01 A3012 RMK A01 T01520013  RH  039%=      5-min Rain = 0
KLD1 172050Z 02005KT 15/01 A3012 RMK A01 T01520014  RH  040%=      5-min Rain = 0
KLD1 172055Z 01006KT 15/02 A3012 RMK A01 T01530015  RH  040%=      5-min Rain = 0
KLD1 172100Z 02006KT 15/01 A3012 RMK A01 T01530014  RH  040%=      5-min Rain = 0
KLD1 172105Z 03004KT 15/01 A3011 RMK A01 T01520014  RH  040%=      5-min Rain = 0
KLD1 172110Z 02007KT 15/02 A3011 RMK A01 T01540015  RH  039%=      5-min Rain = 0
KLD1 172115Z 05003KT 15/01 A3011 RMK A01 T01530014  RH  039%=      5-min Rain = 0
KLD1 172120Z 05003G8KT 16/02 A3011 RMK A01 T01560016  RH  039%=      5-min Rain = 0
KLD1 172125Z 35004KT 16/01 A3011 RMK A01 T01560014  RH  039%=      5-min Rain = 0
KLD1 172130Z 30004KT 16/02 A3011 RMK A01 T01560015  RH  039%=      5-min Rain = 0
KLD1 172135Z 35004KT 16/02 A3011 RMK A01 T01560015  RH  039%=      5-min Rain = 0
KLD1 172140Z 04004KT 16/01 A3011 RMK A01 T01550014  RH  039%=      5-min Rain = 0
KLD1 172145Z 07003KT 16/02 A3011 RMK A01 T01550015  RH  039%=      5-min Rain = 0
KLD1 172150Z 07004KT 15/01 A3011 RMK A01 T01540014  RH  039%=      5-min Rain = 0
KLD1 172155Z 05002KT 15/01 A3011 RMK A01 T01540013  RH  039%=      5-min Rain = 0
KLD1 172200Z 03001KT 16/01 A3011 RMK A01 T01560013  RH  038%=      5-min Rain = 0
KLD1 172205Z 08002KT 16/01 A3011 RMK A01 T01590013  RH  038%=      5-min Rain = 0
KLD1 172210Z 05001KT 16/01 A3011 RMK A01 T01570013  RH  038%=      5-min Rain = 0
KLD1 172215Z 13001KT 16/01 A301 RMK A01 T01600014  RH  038%=      5-min Rain = 0
KLD1 172220Z 15001KT 16/01 A3011 RMK A01 T01630014  RH  037%=      5-min Rain = 0
KLD1 172225Z 24000KT 16/01 A3011 RMK A01 T01640013  RH  036%=      5-min Rain = 0
KLD1 172230Z 26002KT 16/01 A301 RMK A01 T01610013  RH  037%=      5-min Rain = 0
KLD1 172235Z 28002KT 16/01 A301 RMK A01 T01580013  RH  038%=      5-min Rain = 0
KLD1 172240Z 32003KT 16/01 A301 RMK A01 T01560013  RH  038%=      5-min Rain = 0
KLD1 172245Z 31001KT 15/01 A301 RMK A01 T01540013  RH  039%=      5-min Rain = 0
KLD1 172250Z 30002KT 16/01 A301 RMK A01 T01550013  RH  039%=      5-min Rain = 0
KLD1 172255Z 28002KT 15/01 A301 RMK A01 T01540013  RH  039%=      5-min Rain = 0
KLD1 172300Z 27001KT 16/01 A301 RMK A01 T01550013  RH  039%=      5-min Rain = 0
KLD1 172305Z 26002KT 15/01 A301 RMK A01 T01540012  RH  039%=      5-min Rain = 0
KLD1 172310Z 31001KT 15/01 A301 RMK A01 T01510012  RH  039%=      5-min Rain = 0
KLD1 172315Z 30001KT 15/01 A301 RMK A01 T01510012  RH  039%=      5-min Rain = 0
KLD1 172320Z 28002KT 15/01 A3011 RMK A01 T01490011  RH  040%=      5-min Rain = 0
KLD1 172325Z 27002KT 15/01 A3011 RMK A01 T01450011  RH  040%=      5-min Rain = 0
KLD1 172330Z 27003KT 14/01 A3011 RMK A01 T01390010  RH  042%=      5-min Rain = 0
KLD1 172335Z 26003KT 13/01 A3011 RMK A01 T01330009  RH  043%=      5-min Rain = 0
KLD1 172340Z 29002KT 13/01 A3011 RMK A01 T01290009  RH  044%=      5-min Rain = 0
KLD1 172345Z 32002KT 13/01 A3011 RMK A01 T01290011  RH  045%=      5-min Rain = 0
KLD1 172350Z 32002KT 13/01 A3011 RMK A01 T01330010  RH  044%=      5-min Rain = 0
KLD1 172355Z 33002KT 13/01 A3011 RMK A01 T01300009  RH  044%=      5-min Rain = 0
KLD1 180000Z 34002KT 13/01 A3011 RMK A01 T01290010  RH  045%=      5-min Rain = 0
KLD1 180005Z 34002KT 13/01 A3011 RMK A01 T01250010  RH  046%=      5-min Rain = 0
KLD1 180010Z 34001KT 12/01 A3011 RMK A01 T01190009  RH  047%=      5-min Rain = 0
KLD1 180015Z 34001KT 11/01 A3011 RMK A01 T01140008  RH  048%=      5-min Rain = 0
KLD1 180020Z 00000KT 11/01 A3011 RMK A01 T01100007  RH  049%=      5-min Rain = 0
KLD1 180025Z 34000KT 11/01 A3011 RMK A01 T01060008  RH  051%=      5-min Rain = 0
KLD1 180030Z 34001KT 10/01 A3011 RMK A01 T01030007  RH  052%=      5-min Rain = 0
KLD1 180035Z 34000KT 10/01 A3011 RMK A01 T01010007  RH  053%=      5-min Rain = 0
KLD1 180040Z 04001KT 10/01 A3011 RMK A01 T00980006  RH  053%=      5-min Rain = 0
KLD1 180045Z 06001KT 10/01 A3011 RMK A01 T00950006  RH  054%=      5-min Rain = 0
KLD1 180050Z 06001KT 10/01 A3012 RMK A01 T00950007  RH  055%=      5-min Rain = 0
KLD1 180055Z 06001KT 10/01 A3012 RMK A01 T00960007  RH  055%=      5-min Rain = 0
KLD1 180100Z 08002KT 09/00 A3012 RMK A01 T00920003  RH  054%=      5-min Rain = 0
KLD1 180105Z 09002KT 09/00 A3011 RMK A01 T00850003  RH  057%=      5-min Rain = 0
KLD1 180110Z 11002KT 09/00 A3011 RMK A01 T00860003  RH  056%=      5-min Rain = 0
KLD1 180115Z 12003KT 08/00 A3011 RMK A01 T008000-0  RH  058%=      5-min Rain = 0
KLD1 180120Z 13002KT 07/M00 A3011 RMK A01 T00731001  RH  060%=      5-min Rain = 0
KLD1 180125Z 13002KT 07/00 A3011 RMK A01 T00720000  RH  061%=      5-min Rain = 0
KLD1 180130Z 13003KT 07/M00 A3011 RMK A01 T00691002  RH  061%=      5-min Rain = 0
KLD1 180135Z 14004KT 07/M00 A3011 RMK A01 T00671003  RH  062%=      5-min Rain = 0
KLD1 180140Z 14004KT 07/M00 A3011 RMK A01 T00671001  RH  063%=      5-min Rain = 0
KLD1 180145Z 15004KT 07/M00 A3011 RMK A01 T00661001  RH  063%=      5-min Rain = 0
KLD1 180150Z 15005KT 07/00 A3011 RMK A01 T00650000  RH  064%=      5-min Rain = 0
KLD1 180155Z 15004KT 07/00 A3011 RMK A01 T006500-0  RH  064%=      5-min Rain = 0
KLD1 180200Z 15004KT 06/M00 A3011 RMK A01 T00631001  RH  064%=      5-min Rain = 0
KLD1 180205Z 15003KT 06/00 A3011 RMK A01 T00630000  RH  065%=      5-min Rain = 0
KLD1 180210Z 15003KT 06/00 A3011 RMK A01 T00640000  RH  064%=      5-min Rain = 0
KLD1 180215Z 15003KT 06/00 A3011 RMK A01 T006400-0  RH  064%=      5-min Rain = 0
KLD1 180220Z 14003KT 06/M00 A3012 RMK A01 T00621003  RH  064%=      5-min Rain = 0
KLD1 180225Z 14002KT 06/M01 A3012 RMK A01 T00591005  RH  064%=      5-min Rain = 0
KLD1 180230Z 12002KT 06/M00 A3012 RMK A01 T00561004  RH  066%=      5-min Rain = 0
KLD1 180235Z 11002KT 06/00 A3012 RMK A01 T00590000  RH  067%=      5-min Rain = 0
KLD1 180240Z 12003KT 06/00 A3012 RMK A01 T00630001  RH  065%=      5-min Rain = 0
KLD1 180245Z 14003KT 06/M00 A3012 RMK A01 T00621002  RH  065%=      5-min Rain = 0
KLD1 180250Z 16004KT 05/M01 A3012 RMK A01 T00531007  RH  066%=      5-min Rain = 0
KLD1 180255Z 16005KT 05/M00 A3012 RMK A01 T00511002  RH  069%=      5-min Rain = 0
KLD1 180300Z 17004KT 05/M01 A3012 RMK A01 T00501007  RH  068%=      5-min Rain = 0
KLD1 180305Z 17004KT 05/M01 A3013 RMK A01 T00461006  RH  070%=      5-min Rain = 0
KLD1 180310Z 17004KT 05/M00 A3013 RMK A01 T00471004  RH  070%=      5-min Rain = 0
KLD1 180315Z 17004KT 05/M00 A3013 RMK A01 T00501001  RH  070%=      5-min Rain = 0
KLD1 180320Z 18005KT 06/00 A3013 RMK A01 T00550000  RH  068%=      5-min Rain = 0
KLD1 180325Z 18005KT 05/M00 A3012 RMK A01 T00531003  RH  068%=      5-min Rain = 0
KLD1 180330Z 19005KT 05/M00 A3012 RMK A01 T00471004  RH  070%=      5-min Rain = 0
KLD1 180335Z 20005KT 04/M00 A3012 RMK A01 T00421004  RH  073%=      5-min Rain = 0
KLD1 180340Z 21005KT 05/M00 A3012 RMK A01 T00461001  RH  072%=      5-min Rain = 0
KLD1 180345Z 20005KT 04/M00 A3012 RMK A01 T00441004  RH  072%=      5-min Rain = 0
KLD1 180350Z 20006KT 05/M00 A3012 RMK A01 T00451001  RH  073%=      5-min Rain = 0
KLD1 180355Z 21006KT 05/00 A3012 RMK A01 T004700-0  RH  072%=      5-min Rain = 0
KLD1 180400Z 21006KT 05/M00 A3012 RMK A01 T00471001  RH  072%=      5-min Rain = 0
KLD1 180405Z 21006KT 05/00 A3012 RMK A01 T00480001  RH  072%=      5-min Rain = 0
KLD1 180410Z 21006KT 05/00 A3011 RMK A01 T00500001  RH  071%=      5-min Rain = 0
KLD1 180415Z 21005KT 05/M00 A3011 RMK A01 T00481001  RH  071%=      5-min Rain = 0
KLD1 180420Z 21004KT 04/M01 A3011 RMK A01 T00431005  RH  072%=      5-min Rain = 0
KLD1 180425Z 23002KT 04/M01 A3011 RMK A01 T00381005  RH  074%=      5-min Rain = 0
KLD1 180430Z 22003KT 04/M00 A3011 RMK A01 T00371004  RH  075%=      5-min Rain = 0
KLD1 180435Z 22004KT 04/M00 A3011 RMK A01 T00391003  RH  075%=      5-min Rain = 0
KLD1 180440Z 22004KT 04/M01 A3011 RMK A01 T00401005  RH  074%=      5-min Rain = 0
KLD1 180445Z 22003KT 03/M01 A3011 RMK A01 T00341009  RH  074%=      5-min Rain = 0
KLD1 180450Z 23004KT 03/M01 A3011 RMK A01 T00341006  RH  076%=      5-min Rain = 0
KLD1 180455Z 23004KT 03/M01 A3011 RMK A01 T00341005  RH  076%=      5-min Rain = 0
KLD1 180500Z 24004KT 04/M01 A3011 RMK A01 T00371005  RH  075%=      5-min Rain = 0
KLD1 180505Z 24004KT 03/M01 A3011 RMK A01 T00301011  RH  075%=      5-min Rain = 0
KLD1 180510Z 23004KT 02/M01 A3011 RMK A01 T00211014  RH  078%=      5-min Rain = 0
KLD1 180515Z 22002KT 02/M01 A3011 RMK A01 T00181013  RH  080%=      5-min Rain = 0
KLD1 180520Z 22003KT 02/M01 A301 RMK A01 T00191010  RH  082%=      5-min Rain = 0
KLD1 180525Z 22005KT 02/M01 A301 RMK A01 T00231006  RH  082%=      5-min Rain = 0
KLD1 180530Z 22006KT 03/M01 A301 RMK A01 T00291005  RH  079%=      5-min Rain = 0
KLD1 180535Z 23006KT 03/M01 A301 RMK A01 T00301006  RH  078%=      5-min Rain = 0
KLD1 180540Z 22006KT 04/M00 A3009 RMK A01 T00351001  RH  078%=      5-min Rain = 0
KLD1 180545Z 22006KT 04/M00 A3009 RMK A01 T00401001  RH  076%=      5-min Rain = 0
KLD1 180550Z 23005KT 04/M00 A3009 RMK A01 T00391004  RH  074%=      5-min Rain = 0
KLD1 180555Z 23005KT 03/M01 A3009 RMK A01 T00301010  RH  076%=      5-min Rain = 0

Page generated in 0.009 seconds.